sensor_id;sensor_type;location;lat;lon;timestamp;P1;durP1;ratioP1;P2;durP2;ratioP2
5650;SDS011;40241;52.684;9.758;2023-03-23T00:02:19;1.10;;;1.00;;
5650;SDS011;40241;52.684;9.758;2023-03-23T00:04:48;4.60;;;1.00;;
5650;SDS011;40241;52.684;9.758;2023-03-23T00:07:14;2.10;;;1.27;;
5650;SDS011;40241;52.684;9.758;2023-03-23T00:09:49;1.43;;;1.00;;
5650;SDS011;40241;52.684;9.758;2023-03-23T00:12:22;1.13;;;1.03;;
5650;SDS011;40241;52.684;9.758;2023-03-23T00:14:58;1.27;;;1.00;;
5650;SDS011;40241;52.684;9.758;2023-03-23T00:17:28;2.37;;;1.57;;
5650;SDS011;40241;52.684;9.758;2023-03-23T00:19:55;1.10;;;1.10;;
5650;SDS011;40241;52.684;9.758;2023-03-23T00:22:21;2.03;;;1.13;;
5650;SDS011;40241;52.684;9.758;2023-03-23T00:24:49;1.43;;;1.10;;
5650;SDS011;40241;52.684;9.758;2023-03-23T00:27:15;2.10;;;1.80;;
5650;SDS011;40241;52.684;9.758;2023-03-23T00:29:41;1.50;;;1.37;;
5650;SDS011;40241;52.684;9.758;2023-03-23T00:32:09;1.53;;;1.47;;
5650;SDS011;40241;52.684;9.758;2023-03-23T00:34:38;0.90;;;0.87;;
5650;SDS011;40241;52.684;9.758;2023-03-23T00:37:05;1.30;;;1.20;;
5650;SDS011;40241;52.684;9.758;2023-03-23T00:39:31;2.87;;;1.37;;
5650;SDS011;40241;52.684;9.758;2023-03-23T00:41:56;3.83;;;1.20;;
5650;SDS011;40241;52.684;9.758;2023-03-23T00:44:26;2.27;;;1.60;;
5650;SDS011;40241;52.684;9.758;2023-03-23T00:46:53;2.00;;;1.67;;
5650;SDS011;40241;52.684;9.758;2023-03-23T00:49:21;2.17;;;1.50;;
5650;SDS011;40241;52.684;9.758;2023-03-23T00:51:50;1.80;;;1.13;;
5650;SDS011;40241;52.684;9.758;2023-03-23T00:54:19;0.97;;;0.97;;
5650;SDS011;40241;52.684;9.758;2023-03-23T00:56:46;2.50;;;1.47;;
5650;SDS011;40241;52.684;9.758;2023-03-23T00:59:12;2.20;;;1.47;;
5650;SDS011;40241;52.684;9.758;2023-03-23T01:01:37;1.63;;;1.50;;
5650;SDS011;40241;52.684;9.758;2023-03-23T01:04:04;1.77;;;1.47;;
5650;SDS011;40241;52.684;9.758;2023-03-23T01:06:36;4.33;;;2.13;;
5650;SDS011;40241;52.684;9.758;2023-03-23T01:09:05;1.33;;;1.23;;
5650;SDS011;40241;52.684;9.758;2023-03-23T01:11:32;2.73;;;1.40;;
5650;SDS011;40241;52.684;9.758;2023-03-23T01:13:58;1.80;;;1.63;;
5650;SDS011;40241;52.684;9.758;2023-03-23T01:16:24;1.70;;;1.60;;
5650;SDS011;40241;52.684;9.758;2023-03-23T01:18:49;2.10;;;1.90;;
5650;SDS011;40241;52.684;9.758;2023-03-23T01:21:15;2.60;;;1.57;;
5650;SDS011;40241;52.684;9.758;2023-03-23T01:23:42;4.53;;;1.70;;
5650;SDS011;40241;52.684;9.758;2023-03-23T01:26:11;3.13;;;1.83;;
5650;SDS011;40241;52.684;9.758;2023-03-23T01:28:39;1.60;;;1.50;;
5650;SDS011;40241;52.684;9.758;2023-03-23T01:31:07;1.73;;;1.63;;
5650;SDS011;40241;52.684;9.758;2023-03-23T01:33:34;1.33;;;1.23;;
5650;SDS011;40241;52.684;9.758;2023-03-23T01:36:04;1.73;;;1.63;;
5650;SDS011;40241;52.684;9.758;2023-03-23T01:38:31;2.10;;;2.00;;
5650;SDS011;40241;52.684;9.758;2023-03-23T01:40:57;1.90;;;1.80;;
5650;SDS011;40241;52.684;9.758;2023-03-23T01:43:23;2.20;;;1.40;;
5650;SDS011;40241;52.684;9.758;2023-03-23T01:45:48;1.63;;;1.53;;
5650;SDS011;40241;52.684;9.758;2023-03-23T01:48:18;1.93;;;1.70;;
5650;SDS011;40241;52.684;9.758;2023-03-23T01:50:53;2.07;;;1.97;;
5650;SDS011;40241;52.684;9.758;2023-03-23T01:53:22;2.43;;;1.70;;
5650;SDS011;40241;52.684;9.758;2023-03-23T01:55:51;2.57;;;2.07;;
5650;SDS011;40241;52.684;9.758;2023-03-23T01:58:19;2.37;;;2.17;;
5650;SDS011;40241;52.684;9.758;2023-03-23T02:00:50;1.67;;;1.57;;
5650;SDS011;40241;52.684;9.758;2023-03-23T02:03:16;1.73;;;1.60;;
5650;SDS011;40241;52.684;9.758;2023-03-23T02:05:42;2.03;;;1.53;;
5650;SDS011;40241;52.684;9.758;2023-03-23T02:08:08;3.40;;;1.60;;
5650;SDS011;40241;52.684;9.758;2023-03-23T02:10:36;2.20;;;1.37;;
5650;SDS011;40241;52.684;9.758;2023-03-23T02:13:02;6.83;;;1.60;;
5650;SDS011;40241;52.684;9.758;2023-03-23T02:16:12;1.60;;;1.50;;
5650;SDS011;40241;52.684;9.758;2023-03-23T02:27:00;1.40;;;1.30;;
5650;SDS011;40241;52.684;9.758;2023-03-23T02:34:58;1.70;;;1.60;;
5650;SDS011;40241;52.684;9.758;2023-03-23T02:37:30;1.60;;;1.50;;
5650;SDS011;40241;52.684;9.758;2023-03-23T02:40:07;1.73;;;1.63;;
5650;SDS011;40241;52.684;9.758;2023-03-23T02:42:37;1.50;;;1.40;;
5650;SDS011;40241;52.684;9.758;2023-03-23T02:45:07;1.93;;;1.60;;
5650;SDS011;40241;52.684;9.758;2023-03-23T02:47:35;2.43;;;2.23;;
5650;SDS011;40241;52.684;9.758;2023-03-23T02:50:03;2.50;;;1.77;;
5650;SDS011;40241;52.684;9.758;2023-03-23T02:52:32;1.80;;;1.70;;
5650;SDS011;40241;52.684;9.758;2023-03-23T02:55:01;1.73;;;1.63;;
5650;SDS011;40241;52.684;9.758;2023-03-23T02:57:28;1.63;;;1.53;;
5650;SDS011;40241;52.684;9.758;2023-03-23T02:59:53;1.73;;;1.63;;
5650;SDS011;40241;52.684;9.758;2023-03-23T03:02:32;1.87;;;1.77;;
5650;SDS011;40241;52.684;9.758;2023-03-23T03:07:54;2.37;;;1.97;;
5650;SDS011;40241;52.684;9.758;2023-03-23T03:13:07;1.67;;;1.57;;
5650;SDS011;40241;52.684;9.758;2023-03-23T03:15:41;1.67;;;1.57;;
5650;SDS011;40241;52.684;9.758;2023-03-23T03:18:28;1.70;;;1.60;;
5650;SDS011;40241;52.684;9.758;2023-03-23T03:20:59;1.47;;;1.37;;
5650;SDS011;40241;52.684;9.758;2023-03-23T03:23:29;1.63;;;1.30;;
5650;SDS011;40241;52.684;9.758;2023-03-23T03:25:57;1.73;;;1.40;;
5650;SDS011;40241;52.684;9.758;2023-03-23T03:28:24;1.73;;;1.63;;
5650;SDS011;40241;52.684;9.758;2023-03-23T03:30:55;2.70;;;1.60;;
5650;SDS011;40241;52.684;9.758;2023-03-23T03:33:25;1.87;;;1.70;;
5650;SDS011;40241;52.684;9.758;2023-03-23T03:35:53;2.13;;;1.70;;
5650;SDS011;40241;52.684;9.758;2023-03-23T03:38:20;2.60;;;1.80;;
5650;SDS011;40241;52.684;9.758;2023-03-23T03:40:46;1.83;;;1.70;;
5650;SDS011;40241;52.684;9.758;2023-03-23T03:43:11;1.80;;;1.40;;
5650;SDS011;40241;52.684;9.758;2023-03-23T03:45:37;1.90;;;1.80;;
5650;SDS011;40241;52.684;9.758;2023-03-23T03:48:02;2.00;;;1.50;;
5650;SDS011;40241;52.684;9.758;2023-03-23T03:50:28;3.43;;;1.57;;
5650;SDS011;40241;52.684;9.758;2023-03-23T03:52:53;1.57;;;1.47;;
5650;SDS011;40241;52.684;9.758;2023-03-23T03:55:19;2.07;;;1.83;;
5650;SDS011;40241;52.684;9.758;2023-03-23T03:57:44;2.57;;;1.60;;
5650;SDS011;40241;52.684;9.758;2023-03-23T04:00:10;2.93;;;1.53;;
5650;SDS011;40241;52.684;9.758;2023-03-23T04:02:43;1.80;;;1.70;;
5650;SDS011;40241;52.684;9.758;2023-03-23T04:05:15;1.50;;;1.50;;
5650;SDS011;40241;52.684;9.758;2023-03-23T04:07:41;1.97;;;1.80;;
5650;SDS011;40241;52.684;9.758;2023-03-23T04:10:08;1.90;;;1.80;;
5650;SDS011;40241;52.684;9.758;2023-03-23T04:12:35;1.30;;;1.20;;
5650;SDS011;40241;52.684;9.758;2023-03-23T04:15:01;3.37;;;1.73;;
5650;SDS011;40241;52.684;9.758;2023-03-23T04:17:27;1.90;;;1.60;;
5650;SDS011;40241;52.684;9.758;2023-03-23T04:19:53;1.50;;;1.40;;
5650;SDS011;40241;52.684;9.758;2023-03-23T04:22:24;2.03;;;1.83;;
5650;SDS011;40241;52.684;9.758;2023-03-23T04:24:55;1.70;;;1.50;;
5650;SDS011;40241;52.684;9.758;2023-03-23T04:27:23;1.60;;;1.50;;
5650;SDS011;40241;52.684;9.758;2023-03-23T04:29:50;2.70;;;1.80;;
5650;SDS011;40241;52.684;9.758;2023-03-23T04:32:15;1.70;;;1.53;;
5650;SDS011;40241;52.684;9.758;2023-03-23T04:34:42;1.13;;;1.13;;
5650;SDS011;40241;52.684;9.758;2023-03-23T04:37:09;1.47;;;1.23;;
5650;SDS011;40241;52.684;9.758;2023-03-23T04:39:34;1.73;;;1.63;;
5650;SDS011;40241;52.684;9.758;2023-03-23T04:42:00;1.70;;;1.60;;
5650;SDS011;40241;52.684;9.758;2023-03-23T04:44:26;1.77;;;1.67;;
5650;SDS011;40241;52.684;9.758;2023-03-23T04:46:52;1.40;;;1.30;;
5650;SDS011;40241;52.684;9.758;2023-03-23T04:49:19;1.83;;;1.70;;
5650;SDS011;40241;52.684;9.758;2023-03-23T04:51:46;1.27;;;1.20;;
5650;SDS011;40241;52.684;9.758;2023-03-23T04:54:13;3.93;;;1.63;;
5650;SDS011;40241;52.684;9.758;2023-03-23T04:56:39;1.40;;;1.30;;
5650;SDS011;40241;52.684;9.758;2023-03-23T04:59:06;1.40;;;1.30;;
5650;SDS011;40241;52.684;9.758;2023-03-23T05:01:31;1.30;;;1.20;;
5650;SDS011;40241;52.684;9.758;2023-03-23T05:03:59;1.40;;;1.00;;
5650;SDS011;40241;52.684;9.758;2023-03-23T05:06:25;1.23;;;1.13;;
5650;SDS011;40241;52.684;9.758;2023-03-23T05:08:50;1.33;;;1.23;;
5650;SDS011;40241;52.684;9.758;2023-03-23T05:11:15;1.40;;;1.33;;
5650;SDS011;40241;52.684;9.758;2023-03-23T05:13:41;1.80;;;1.47;;
5650;SDS011;40241;52.684;9.758;2023-03-23T05:16:06;1.37;;;1.10;;
5650;SDS011;40241;52.684;9.758;2023-03-23T05:18:32;3.43;;;1.43;;
5650;SDS011;40241;52.684;9.758;2023-03-23T05:21:01;1.20;;;1.20;;
5650;SDS011;40241;52.684;9.758;2023-03-23T05:23:28;1.70;;;1.60;;
5650;SDS011;40241;52.684;9.758;2023-03-23T05:25:56;0.93;;;0.93;;
5650;SDS011;40241;52.684;9.758;2023-03-23T05:28:25;2.00;;;1.20;;
5650;SDS011;40241;52.684;9.758;2023-03-23T05:30:55;3.90;;;1.10;;
5650;SDS011;40241;52.684;9.758;2023-03-23T05:33:21;1.20;;;1.10;;
5650;SDS011;40241;52.684;9.758;2023-03-23T05:35:46;1.37;;;1.27;;
5650;SDS011;40241;52.684;9.758;2023-03-23T05:38:12;1.33;;;1.20;;
5650;SDS011;40241;52.684;9.758;2023-03-23T05:40:39;1.17;;;0.90;;
5650;SDS011;40241;52.684;9.758;2023-03-23T05:43:06;1.43;;;1.07;;
5650;SDS011;40241;52.684;9.758;2023-03-23T05:45:32;1.30;;;1.23;;
5650;SDS011;40241;52.684;9.758;2023-03-23T05:47:57;1.80;;;0.90;;
5650;SDS011;40241;52.684;9.758;2023-03-23T05:50:22;1.00;;;0.80;;
5650;SDS011;40241;52.684;9.758;2023-03-23T05:52:48;0.83;;;0.83;;
5650;SDS011;40241;52.684;9.758;2023-03-23T05:55:13;1.93;;;0.80;;
5650;SDS011;40241;52.684;9.758;2023-03-23T05:57:40;1.07;;;1.00;;
5650;SDS011;40241;52.684;9.758;2023-03-23T06:00:05;2.03;;;1.20;;
5650;SDS011;40241;52.684;9.758;2023-03-23T06:02:36;1.17;;;1.07;;
5650;SDS011;40241;52.684;9.758;2023-03-23T06:05:02;1.57;;;1.00;;
5650;SDS011;40241;52.684;9.758;2023-03-23T06:07:27;1.50;;;1.00;;
5650;SDS011;40241;52.684;9.758;2023-03-23T06:09:52;0.93;;;0.93;;
5650;SDS011;40241;52.684;9.758;2023-03-23T06:12:18;1.00;;;1.00;;
5650;SDS011;40241;52.684;9.758;2023-03-23T06:14:45;1.00;;;0.80;;
5650;SDS011;40241;52.684;9.758;2023-03-23T06:17:14;1.63;;;0.83;;
5650;SDS011;40241;52.684;9.758;2023-03-23T06:19:42;0.93;;;0.83;;
5650;SDS011;40241;52.684;9.758;2023-03-23T06:22:08;1.20;;;1.10;;
5650;SDS011;40241;52.684;9.758;2023-03-23T06:24:33;0.77;;;0.77;;
5650;SDS011;40241;52.684;9.758;2023-03-23T06:26:59;1.33;;;1.23;;
5650;SDS011;40241;52.684;9.758;2023-03-23T06:29:25;1.47;;;0.77;;
5650;SDS011;40241;52.684;9.758;2023-03-23T06:31:52;0.93;;;0.90;;
5650;SDS011;40241;52.684;9.758;2023-03-23T06:34:22;1.73;;;1.30;;
5650;SDS011;40241;52.684;9.758;2023-03-23T06:36:48;1.03;;;0.73;;
5650;SDS011;40241;52.684;9.758;2023-03-23T06:39:13;0.80;;;0.70;;
5650;SDS011;40241;52.684;9.758;2023-03-23T06:41:39;0.77;;;0.77;;
5650;SDS011;40241;52.684;9.758;2023-03-23T06:44:04;1.23;;;1.13;;
5650;SDS011;40241;52.684;9.758;2023-03-23T06:46:31;2.40;;;1.20;;
5650;SDS011;40241;52.684;9.758;2023-03-23T06:48:57;0.90;;;0.90;;
5650;SDS011;40241;52.684;9.758;2023-03-23T06:51:23;1.07;;;0.67;;
5650;SDS011;40241;52.684;9.758;2023-03-23T06:53:48;1.73;;;0.60;;
5650;SDS011;40241;52.684;9.758;2023-03-23T06:56:14;0.97;;;0.87;;
5650;SDS011;40241;52.684;9.758;2023-03-23T06:58:40;1.10;;;1.00;;
5650;SDS011;40241;52.684;9.758;2023-03-23T07:01:07;1.00;;;0.80;;
5650;SDS011;40241;52.684;9.758;2023-03-23T07:03:33;1.50;;;0.90;;
5650;SDS011;40241;52.684;9.758;2023-03-23T07:05:59;1.10;;;0.80;;
5650;SDS011;40241;52.684;9.758;2023-03-23T07:08:25;0.67;;;0.67;;
5650;SDS011;40241;52.684;9.758;2023-03-23T07:10:51;1.33;;;0.70;;
5650;SDS011;40241;52.684;9.758;2023-03-23T07:13:17;0.93;;;0.60;;
5650;SDS011;40241;52.684;9.758;2023-03-23T07:15:43;0.60;;;0.60;;
5650;SDS011;40241;52.684;9.758;2023-03-23T07:18:09;1.90;;;0.67;;
5650;SDS011;40241;52.684;9.758;2023-03-23T07:20:34;0.97;;;0.87;;
5650;SDS011;40241;52.684;9.758;2023-03-23T07:23:01;2.33;;;0.87;;
5650;SDS011;40241;52.684;9.758;2023-03-23T07:25:27;0.63;;;0.63;;
5650;SDS011;40241;52.684;9.758;2023-03-23T07:27:52;0.60;;;0.60;;
5650;SDS011;40241;52.684;9.758;2023-03-23T07:30:18;1.20;;;1.10;;
5650;SDS011;40241;52.684;9.758;2023-03-23T07:32:43;0.90;;;0.60;;
5650;SDS011;40241;52.684;9.758;2023-03-23T07:35:08;1.10;;;1.00;;
5650;SDS011;40241;52.684;9.758;2023-03-23T07:37:34;2.60;;;0.93;;
5650;SDS011;40241;52.684;9.758;2023-03-23T07:40:00;0.90;;;0.60;;
5650;SDS011;40241;52.684;9.758;2023-03-23T07:42:39;0.90;;;0.80;;
5650;SDS011;40241;52.684;9.758;2023-03-23T07:45:05;1.00;;;0.70;;
5650;SDS011;40241;52.684;9.758;2023-03-23T07:47:30;0.90;;;0.90;;
5650;SDS011;40241;52.684;9.758;2023-03-23T07:49:56;0.80;;;0.80;;
5650;SDS011;40241;52.684;9.758;2023-03-23T07:52:21;0.87;;;0.87;;
5650;SDS011;40241;52.684;9.758;2023-03-23T07:54:47;2.00;;;0.90;;
5650;SDS011;40241;52.684;9.758;2023-03-23T07:57:12;1.23;;;1.07;;
5650;SDS011;40241;52.684;9.758;2023-03-23T07:59:38;1.47;;;1.00;;
5650;SDS011;40241;52.684;9.758;2023-03-23T08:02:03;2.20;;;1.33;;
5650;SDS011;40241;52.684;9.758;2023-03-23T08:04:28;3.10;;;1.30;;
5650;SDS011;40241;52.684;9.758;2023-03-23T08:06:54;1.10;;;1.00;;
5650;SDS011;40241;52.684;9.758;2023-03-23T08:09:19;1.10;;;1.00;;
5650;SDS011;40241;52.684;9.758;2023-03-23T08:11:45;1.73;;;1.20;;
5650;SDS011;40241;52.684;9.758;2023-03-23T08:14:10;1.67;;;1.00;;
5650;SDS011;40241;52.684;9.758;2023-03-23T08:16:36;1.63;;;1.53;;
5650;SDS011;40241;52.684;9.758;2023-03-23T08:19:01;1.23;;;1.00;;
5650;SDS011;40241;52.684;9.758;2023-03-23T08:21:27;1.23;;;1.20;;
5650;SDS011;40241;52.684;9.758;2023-03-23T08:23:53;3.93;;;1.33;;
5650;SDS011;40241;52.684;9.758;2023-03-23T08:26:19;0.87;;;0.87;;
5650;SDS011;40241;52.684;9.758;2023-03-23T08:28:44;1.50;;;1.33;;
5650;SDS011;40241;52.684;9.758;2023-03-23T08:31:11;1.33;;;1.23;;
5650;SDS011;40241;52.684;9.758;2023-03-23T08:33:38;1.13;;;1.00;;
5650;SDS011;40241;52.684;9.758;2023-03-23T08:36:04;2.03;;;1.27;;
5650;SDS011;40241;52.684;9.758;2023-03-23T08:38:30;2.90;;;1.30;;
5650;SDS011;40241;52.684;9.758;2023-03-23T08:40:59;1.63;;;1.03;;
5650;SDS011;40241;52.684;9.758;2023-03-23T08:43:27;2.50;;;1.33;;
5650;SDS011;40241;52.684;9.758;2023-03-23T08:45:53;2.60;;;1.17;;
5650;SDS011;40241;52.684;9.758;2023-03-23T08:48:19;2.57;;;1.33;;
5650;SDS011;40241;52.684;9.758;2023-03-23T08:50:45;1.77;;;1.17;;
5650;SDS011;40241;52.684;9.758;2023-03-23T08:53:10;0.90;;;0.87;;
5650;SDS011;40241;52.684;9.758;2023-03-23T08:55:36;1.53;;;1.43;;
5650;SDS011;40241;52.684;9.758;2023-03-23T08:58:02;1.13;;;1.03;;
5650;SDS011;40241;52.684;9.758;2023-03-23T09:00:28;2.40;;;1.20;;
5650;SDS011;40241;52.684;9.758;2023-03-23T09:02:54;5.03;;;1.20;;
5650;SDS011;40241;52.684;9.758;2023-03-23T09:05:22;2.97;;;1.27;;
5650;SDS011;40241;52.684;9.758;2023-03-23T09:07:50;2.20;;;1.10;;
5650;SDS011;40241;52.684;9.758;2023-03-23T09:10:16;1.40;;;1.10;;
5650;SDS011;40241;52.684;9.758;2023-03-23T09:12:43;1.30;;;1.20;;
5650;SDS011;40241;52.684;9.758;2023-03-23T09:15:11;2.27;;;1.30;;
5650;SDS011;40241;52.684;9.758;2023-03-23T09:17:43;1.63;;;1.20;;
5650;SDS011;40241;52.684;9.758;2023-03-23T09:20:10;1.50;;;1.20;;
5650;SDS011;40241;52.684;9.758;2023-03-23T09:22:38;1.27;;;1.17;;
5650;SDS011;40241;52.684;9.758;2023-03-23T09:25:05;2.43;;;1.27;;
5650;SDS011;40241;52.684;9.758;2023-03-23T09:27:31;1.50;;;1.03;;
5650;SDS011;40241;52.684;9.758;2023-03-23T09:29:57;1.30;;;1.10;;
5650;SDS011;40241;52.684;9.758;2023-03-23T09:32:23;1.47;;;1.13;;
5650;SDS011;40241;52.684;9.758;2023-03-23T09:34:49;1.90;;;1.07;;
5650;SDS011;40241;52.684;9.758;2023-03-23T09:37:14;1.23;;;0.90;;
5650;SDS011;40241;52.684;9.758;2023-03-23T09:39:40;2.70;;;1.20;;
5650;SDS011;40241;52.684;9.758;2023-03-23T09:42:12;1.60;;;1.00;;
5650;SDS011;40241;52.684;9.758;2023-03-23T09:49:57;1.30;;;0.90;;
5650;SDS011;40241;52.684;9.758;2023-03-23T09:52:33;2.17;;;0.97;;
5650;SDS011;40241;52.684;9.758;2023-03-23T09:55:04;1.57;;;0.80;;
5650;SDS011;40241;52.684;9.758;2023-03-23T09:57:49;1.40;;;1.30;;
5650;SDS011;40241;52.684;9.758;2023-03-23T10:00:21;1.67;;;1.30;;
5650;SDS011;40241;52.684;9.758;2023-03-23T10:08:13;2.20;;;1.40;;
5650;SDS011;40241;52.684;9.758;2023-03-23T10:16:03;3.00;;;1.20;;
5650;SDS011;40241;52.684;9.758;2023-03-23T10:21:03;1.57;;;0.90;;
5650;SDS011;40241;52.684;9.758;2023-03-23T10:31:32;1.17;;;0.60;;
5650;SDS011;40241;52.684;9.758;2023-03-23T10:34:03;1.27;;;0.67;;
5650;SDS011;40241;52.684;9.758;2023-03-23T10:36:56;2.97;;;0.93;;
5650;SDS011;40241;52.684;9.758;2023-03-23T10:39:28;0.90;;;0.60;;
5650;SDS011;40241;52.684;9.758;2023-03-23T10:41:56;1.53;;;0.77;;
5650;SDS011;40241;52.684;9.758;2023-03-23T10:44:27;2.00;;;0.70;;
5650;SDS011;40241;52.684;9.758;2023-03-23T10:47:02;1.73;;;0.87;;
5650;SDS011;40241;52.684;9.758;2023-03-23T10:49:33;1.37;;;0.70;;
5650;SDS011;40241;52.684;9.758;2023-03-23T10:54:55;1.63;;;0.80;;
5650;SDS011;40241;52.684;9.758;2023-03-23T10:57:25;0.70;;;0.60;;
5650;SDS011;40241;52.684;9.758;2023-03-23T11:00:27;2.90;;;1.07;;
5650;SDS011;40241;52.684;9.758;2023-03-23T11:03:06;0.90;;;0.63;;
5650;SDS011;40241;52.684;9.758;2023-03-23T11:05:51;0.80;;;0.63;;
5650;SDS011;40241;52.684;9.758;2023-03-23T11:08:21;1.83;;;0.60;;
5650;SDS011;40241;52.684;9.758;2023-03-23T11:10:59;0.90;;;0.60;;
5650;SDS011;40241;52.684;9.758;2023-03-23T11:13:37;1.83;;;0.87;;
5650;SDS011;40241;52.684;9.758;2023-03-23T11:16:09;1.77;;;0.77;;
5650;SDS011;40241;52.684;9.758;2023-03-23T11:18:40;0.87;;;0.80;;
5650;SDS011;40241;52.684;9.758;2023-03-23T11:21:11;2.97;;;0.90;;
5650;SDS011;40241;52.684;9.758;2023-03-23T11:23:51;1.60;;;0.67;;
5650;SDS011;40241;52.684;9.758;2023-03-23T11:31:40;3.40;;;0.73;;
5650;SDS011;40241;52.684;9.758;2023-03-23T11:36:57;2.60;;;0.63;;
5650;SDS011;40241;52.684;9.758;2023-03-23T11:39:31;1.63;;;1.07;;
5650;SDS011;40241;52.684;9.758;2023-03-23T11:41:59;3.33;;;0.87;;
5650;SDS011;40241;52.684;9.758;2023-03-23T11:44:39;3.13;;;0.77;;
5650;SDS011;40241;52.684;9.758;2023-03-23T11:50:12;1.30;;;0.60;;
5650;SDS011;40241;52.684;9.758;2023-03-23T11:52:44;2.47;;;0.90;;
5650;SDS011;40241;52.684;9.758;2023-03-23T11:55:25;1.70;;;0.90;;
5650;SDS011;40241;52.684;9.758;2023-03-23T11:57:55;2.77;;;1.10;;
5650;SDS011;40241;52.684;9.758;2023-03-23T12:00:27;1.53;;;0.80;;
5650;SDS011;40241;52.684;9.758;2023-03-23T12:02:59;1.80;;;0.70;;
5650;SDS011;40241;52.684;9.758;2023-03-23T12:10:57;2.70;;;0.93;;
5650;SDS011;40241;52.684;9.758;2023-03-23T12:14:14;2.73;;;0.97;;
5650;SDS011;40241;52.684;9.758;2023-03-23T12:23:21;1.70;;;0.70;;
5650;SDS011;40241;52.684;9.758;2023-03-23T12:31:14;4.00;;;0.90;;
5650;SDS011;40241;52.684;9.758;2023-03-23T12:33:54;1.33;;;0.80;;
5650;SDS011;40241;52.684;9.758;2023-03-23T12:41:54;0.60;;;0.40;;
5650;SDS011;40241;52.684;9.758;2023-03-23T12:44:35;0.60;;;0.40;;
5650;SDS011;40241;52.684;9.758;2023-03-23T12:49:53;0.80;;;0.50;;
5650;SDS011;40241;52.684;9.758;2023-03-23T12:55:26;0.60;;;0.50;;
5650;SDS011;40241;52.684;9.758;2023-03-23T12:57:56;2.13;;;0.77;;
5650;SDS011;40241;52.684;9.758;2023-03-23T13:03:14;1.07;;;0.40;;
5650;SDS011;40241;52.684;9.758;2023-03-23T13:05:49;0.90;;;0.50;;
5650;SDS011;40241;52.684;9.758;2023-03-23T13:08:22;0.70;;;0.70;;
5650;SDS011;40241;52.684;9.758;2023-03-23T13:10:53;0.70;;;0.70;;
5650;SDS011;40241;52.684;9.758;2023-03-23T13:13:24;1.10;;;0.60;;
5650;SDS011;40241;52.684;9.758;2023-03-23T13:24:17;0.93;;;0.60;;
5650;SDS011;40241;52.684;9.758;2023-03-23T13:26:46;1.03;;;0.60;;
5650;SDS011;40241;52.684;9.758;2023-03-23T13:29:17;1.13;;;0.70;;
5650;SDS011;40241;52.684;9.758;2023-03-23T13:31:45;1.17;;;0.70;;
5650;SDS011;40241;52.684;9.758;2023-03-23T13:34:17;1.80;;;0.80;;
5650;SDS011;40241;52.684;9.758;2023-03-23T13:36:52;1.47;;;0.73;;
5650;SDS011;40241;52.684;9.758;2023-03-23T13:39:21;0.80;;;0.60;;
5650;SDS011;40241;52.684;9.758;2023-03-23T13:41:59;0.90;;;0.80;;
5650;SDS011;40241;52.684;9.758;2023-03-23T13:44:39;0.80;;;0.57;;
5650;SDS011;40241;52.684;9.758;2023-03-23T14:10:42;1.57;;;0.80;;
5650;SDS011;40241;52.684;9.758;2023-03-23T14:13:16;0.57;;;0.40;;
5650;SDS011;40241;52.684;9.758;2023-03-23T14:15:53;0.77;;;0.50;;
5650;SDS011;40241;52.684;9.758;2023-03-23T14:18:39;0.70;;;0.43;;
5650;SDS011;40241;52.684;9.758;2023-03-23T14:21:15;0.50;;;0.40;;
5650;SDS011;40241;52.684;9.758;2023-03-23T14:23:42;1.00;;;0.50;;
5650;SDS011;40241;52.684;9.758;2023-03-23T14:26:12;2.30;;;0.93;;
5650;SDS011;40241;52.684;9.758;2023-03-23T14:28:43;0.90;;;0.50;;
5650;SDS011;40241;52.684;9.758;2023-03-23T14:31:23;0.70;;;0.57;;
5650;SDS011;40241;52.684;9.758;2023-03-23T14:33:51;0.60;;;0.50;;
5650;SDS011;40241;52.684;9.758;2023-03-23T14:36:25;1.10;;;0.57;;
5650;SDS011;40241;52.684;9.758;2023-03-23T14:39:00;1.80;;;0.63;;
5650;SDS011;40241;52.684;9.758;2023-03-23T14:41:32;0.60;;;0.50;;
5650;SDS011;40241;52.684;9.758;2023-03-23T14:44:00;1.03;;;0.60;;
5650;SDS011;40241;52.684;9.758;2023-03-23T14:46:27;1.27;;;0.50;;
5650;SDS011;40241;52.684;9.758;2023-03-23T14:48:55;0.50;;;0.40;;
5650;SDS011;40241;52.684;9.758;2023-03-23T14:51:24;0.70;;;0.50;;
5650;SDS011;40241;52.684;9.758;2023-03-23T14:53:49;1.10;;;0.50;;
5650;SDS011;40241;52.684;9.758;2023-03-23T14:56:19;0.80;;;0.40;;
5650;SDS011;40241;52.684;9.758;2023-03-23T14:58:48;1.33;;;0.50;;
5650;SDS011;40241;52.684;9.758;2023-03-23T15:01:20;0.50;;;0.40;;
5650;SDS011;40241;52.684;9.758;2023-03-23T15:03:56;0.70;;;0.50;;
5650;SDS011;40241;52.684;9.758;2023-03-23T15:06:28;0.60;;;0.50;;
5650;SDS011;40241;52.684;9.758;2023-03-23T15:08:56;0.60;;;0.30;;
5650;SDS011;40241;52.684;9.758;2023-03-23T15:11:33;0.83;;;0.50;;
5650;SDS011;40241;52.684;9.758;2023-03-23T15:14:19;0.50;;;0.40;;
5650;SDS011;40241;52.684;9.758;2023-03-23T15:16:48;2.30;;;0.40;;
5650;SDS011;40241;52.684;9.758;2023-03-23T15:19:18;0.93;;;0.60;;
5650;SDS011;40241;52.684;9.758;2023-03-23T15:21:54;0.70;;;0.50;;
5650;SDS011;40241;52.684;9.758;2023-03-23T15:24:26;0.60;;;0.50;;
5650;SDS011;40241;52.684;9.758;2023-03-23T15:29:45;1.00;;;0.50;;
5650;SDS011;40241;52.684;9.758;2023-03-23T15:32:23;1.47;;;0.63;;
5650;SDS011;40241;52.684;9.758;2023-03-23T15:35:03;0.60;;;0.50;;
5650;SDS011;40241;52.684;9.758;2023-03-23T15:37:34;0.90;;;0.50;;
5650;SDS011;40241;52.684;9.758;2023-03-23T15:40:13;1.03;;;0.50;;
5650;SDS011;40241;52.684;9.758;2023-03-23T15:42:41;1.07;;;0.50;;
5650;SDS011;40241;52.684;9.758;2023-03-23T15:47:36;0.80;;;0.70;;
5650;SDS011;40241;52.684;9.758;2023-03-23T15:52:38;0.90;;;0.53;;
5650;SDS011;40241;52.684;9.758;2023-03-23T15:55:16;0.70;;;0.60;;
5650;SDS011;40241;52.684;9.758;2023-03-23T15:57:45;0.50;;;0.40;;
5650;SDS011;40241;52.684;9.758;2023-03-23T16:00:11;0.80;;;0.63;;
5650;SDS011;40241;52.684;9.758;2023-03-23T16:02:37;1.07;;;0.60;;
5650;SDS011;40241;52.684;9.758;2023-03-23T16:05:03;1.97;;;0.80;;
5650;SDS011;40241;52.684;9.758;2023-03-23T16:07:28;0.50;;;0.40;;
5650;SDS011;40241;52.684;9.758;2023-03-23T16:09:54;1.37;;;0.60;;
5650;SDS011;40241;52.684;9.758;2023-03-23T16:12:20;1.27;;;0.57;;
5650;SDS011;40241;52.684;9.758;2023-03-23T16:14:45;1.40;;;0.60;;
5650;SDS011;40241;52.684;9.758;2023-03-23T16:17:17;0.60;;;0.60;;
5650;SDS011;40241;52.684;9.758;2023-03-23T16:19:44;0.93;;;0.60;;
5650;SDS011;40241;52.684;9.758;2023-03-23T16:22:09;1.30;;;0.80;;
5650;SDS011;40241;52.684;9.758;2023-03-23T16:24:35;1.00;;;0.60;;
5650;SDS011;40241;52.684;9.758;2023-03-23T16:27:00;0.60;;;0.60;;
5650;SDS011;40241;52.684;9.758;2023-03-23T16:29:25;1.07;;;0.43;;
5650;SDS011;40241;52.684;9.758;2023-03-23T16:31:51;0.60;;;0.60;;
5650;SDS011;40241;52.684;9.758;2023-03-23T16:34:17;1.10;;;0.93;;
5650;SDS011;40241;52.684;9.758;2023-03-23T16:36:42;0.90;;;0.60;;
5650;SDS011;40241;52.684;9.758;2023-03-23T16:39:09;1.43;;;0.70;;
5650;SDS011;40241;52.684;9.758;2023-03-23T16:41:36;0.60;;;0.60;;
5650;SDS011;40241;52.684;9.758;2023-03-23T16:44:01;0.90;;;0.77;;
5650;SDS011;40241;52.684;9.758;2023-03-23T16:46:27;3.10;;;1.00;;
5650;SDS011;40241;52.684;9.758;2023-03-23T16:48:53;1.10;;;0.83;;
5650;SDS011;40241;52.684;9.758;2023-03-23T16:51:19;1.00;;;0.70;;
5650;SDS011;40241;52.684;9.758;2023-03-23T16:53:45;1.13;;;1.03;;
5650;SDS011;40241;52.684;9.758;2023-03-23T16:56:10;1.67;;;1.23;;
5650;SDS011;40241;52.684;9.758;2023-03-23T16:58:36;0.93;;;0.83;;
5650;SDS011;40241;52.684;9.758;2023-03-23T17:01:01;2.97;;;0.83;;
5650;SDS011;40241;52.684;9.758;2023-03-23T17:03:27;0.80;;;0.80;;
5650;SDS011;40241;52.684;9.758;2023-03-23T17:05:53;2.00;;;1.50;;
5650;SDS011;40241;52.684;9.758;2023-03-23T17:08:19;1.43;;;1.07;;
5650;SDS011;40241;52.684;9.758;2023-03-23T17:10:45;1.07;;;0.97;;
5650;SDS011;40241;52.684;9.758;2023-03-23T17:13:12;1.13;;;1.03;;
5650;SDS011;40241;52.684;9.758;2023-03-23T17:15:38;1.27;;;1.03;;
5650;SDS011;40241;52.684;9.758;2023-03-23T17:18:05;0.80;;;0.70;;
5650;SDS011;40241;52.684;9.758;2023-03-23T17:20:31;1.10;;;1.10;;
5650;SDS011;40241;52.684;9.758;2023-03-23T17:22:57;1.53;;;1.30;;